Observations for Trim Patrick St
| Time | AQI | Temp °C | Hum % | Pres Pa | CO μg/m³ | H₂S μg/m³ | NO μg/m³ | NO₂ μg/m³ | O₃ μg/m³ | SO₂ μg/m³ | PM1 μg/m³ | PM2.5 μg/m³ | PM10 μg/m³ |
|---|---|---|---|---|---|---|---|---|---|---|---|---|---|
| Friday 7 August 2026 | |||||||||||||
| 09:14 | 1 | 23.8 | 51 | 72,031 | 0.07 | 0 | 2.86 | 7.88 | 23.93 | 5.71 | 2 | 7.12 | 7.83 |
| 09:13 | 1 | 23.7 | 51 | 72,161 | 0.05 | 0 | 2.75 | 7.15 | 30.56 | 4.68 | 2 | 7.13 | 7.84 |
| 09:11 | 1 | 23.6 | 51 | 72,412 | 0.05 | 0 | 2.91 | 5.94 | 19.82 | 4.01 | 2 | 7.85 | 8.64 |
| 09:10 | 1 | 23.6 | 55 | 72,607 | 0.07 | 0 | 3.49 | 5.38 | 14.6 | 4.36 | 2.86 | 7.6 | 8.36 |
| 09:09 | 1 | 23.5 | 51 | 72,786 | 0.1 | 0 | 2.96 | 3.54 | 1.67 | 4.88 | 2 | 7.1 | 7.81 |
| 09:08 | 1 | 23.5 | 52 | 73,078 | 0.14 | 0 | 3.15 | 4.65 | 7.66 | 5.34 | 2.86 | 7.8 | 8.58 |
| 09:07 | 1 | 23.4 | 52 | 73,261 | 0.12 | 0 | 3.2 | 9 | 24.33 | 4.06 | 2 | 7.04 | 7.74 |
| 09:06 | 1 | 23.3 | 53 | 73,443 | 0.12 | 0 | 3.26 | 4.81 | 4.19 | 4.5 | 2 | 7.76 | 8.53 |
| 09:05 | 1 | 23.2 | 53 | 73,689 | 0.12 | 0 | 3.19 | 5.79 | 16.91 | 3.91 | 2 | 6.97 | 7.67 |
| 09:04 | 1 | 23.1 | 54 | 73,891 | 0.11 | 0 | 3.36 | 6.27 | 13.47 | 4.65 | 2 | 7.7 | 8.47 |
| 09:03 | 1 | 23 | 55 | 74,045 | 0.11 | 0 | 3.57 | 5.98 | 7.38 | 4.02 | 2.86 | 7.61 | 8.37 |
| 09:02 | 1 | 22.9 | 57 | 74,208 | 0.12 | 0 | 3.65 | 5.8 | 31.33 | 3.84 | 2 | 6.71 | 7.38 |
| 09:00 | 1 | 22.7 | 58 | 74,326 | 0.14 | 0 | 3.93 | 6.6 | 11.7 | 3.8 | 2.86 | 8.17 | 8.99 |
| 08:59 | 1 | 22.7 | 56 | 74,363 | 0.14 | 0 | 3.7 | 6.98 | 19.56 | 3.76 | 2.86 | 7.5 | 8.25 |
| 08:57 | 1 | 22.5 | 56 | 74,453 | 0.11 | 0 | 3.58 | 6.15 | 18.56 | 3.59 | 2 | 6.82 | 7.5 |
| 08:56 | 1 | 22.4 | 55 | 74,507 | 0.12 | 0 | 3.31 | 7.22 | 13.19 | 2.98 | 2.86 | 7.58 | 8.33 |
| 08:55 | 1 | 22.3 | 58 | 74,583 | 0.12 | 0 | 3.55 | 6.09 | 18.97 | 3.29 | 2.86 | 8.16 | 8.98 |
| 08:54 | 1 | 22.2 | 58 | 74,687 | 0.15 | 0 | 3.43 | 4.94 | 10.5 | 2.65 | 2 | 6.66 | 7.33 |
| 08:53 | 1 | 22.1 | 58 | 74,807 | 0.14 | 0 | 3.88 | 6.22 | 16.45 | 2.64 | 2.86 | 7.44 | 8.18 |
| 08:51 | 1 | 21.9 | 56 | 74,943 | 0.16 | 0 | 3.4 | 8.08 | 0 | 3.28 | 2 | 8.29 | 9.12 |